createdAt,value
2023-04-09T00:05:39.171Z,1008.24
2023-04-09T00:11:23.362Z,1008.25
2023-04-09T00:17:07.390Z,1008.21
2023-04-09T00:22:51.458Z,1008.18
2023-04-09T00:28:35.559Z,1008.16
2023-04-09T00:34:19.635Z,1008.08
2023-04-09T00:40:03.934Z,1008.06
2023-04-09T00:45:48.950Z,1007.98
2023-04-09T00:51:34.472Z,1007.94
2023-04-09T00:57:18.517Z,1007.89
2023-04-09T01:03:03.742Z,1007.85
2023-04-09T01:08:55.994Z,1007.85
2023-04-09T01:14:45.166Z,1007.83
2023-04-09T01:20:31.664Z,1007.8
2023-04-09T01:26:18.275Z,1007.76
2023-04-09T01:32:02.623Z,1007.79
2023-04-09T01:37:47.362Z,1007.84
2023-04-09T01:43:31.674Z,1007.89
2023-04-09T01:49:15.980Z,1007.91
2023-04-09T01:54:59.966Z,1007.78
2023-04-09T02:00:49.074Z,1007.78
2023-04-09T02:06:38.450Z,1007.85
2023-04-09T02:12:22.776Z,1007.89
2023-04-09T02:18:12.574Z,1007.89
2023-04-09T02:23:56.473Z,1007.92
2023-04-09T02:29:40.627Z,1007.87
2023-04-09T02:35:24.800Z,1007.84
2023-04-09T02:41:08.990Z,1007.77
2023-04-09T02:46:53.207Z,1007.73
2023-04-09T02:52:37.204Z,1007.72
2023-04-09T02:58:22.287Z,1007.66
2023-04-09T03:04:06.340Z,1007.61
2023-04-09T03:09:50.887Z,1007.58
2023-04-09T03:15:35.164Z,1007.57
2023-04-09T03:21:20.208Z,1007.52
2023-04-09T03:27:04.113Z,1007.49
2023-04-09T03:32:48.375Z,1007.42
2023-04-09T03:38:32.518Z,1007.32
2023-04-09T03:44:16.657Z,1007.27
2023-04-09T03:50:00.612Z,1007.25
2023-04-09T03:55:44.778Z,1007.25
2023-04-09T04:01:28.765Z,1007.23
2023-04-09T04:07:12.771Z,1007.26
2023-04-09T04:12:56.915Z,1007.21
2023-04-09T04:18:40.925Z,1007.17
2023-04-09T04:24:24.765Z,1007.19
2023-04-09T04:30:09.760Z,1007.15
2023-04-09T04:35:54.080Z,1007.18
2023-04-09T04:41:38.584Z,1007.17
2023-04-09T04:47:22.745Z,1007.11
2023-04-09T04:53:07.002Z,1007.09
2023-04-09T04:58:51.748Z,1007.13
2023-04-09T05:04:36.499Z,1007.16
2023-04-09T05:10:20.587Z,1007.26
2023-04-09T05:16:04.831Z,1007.26
2023-04-09T05:21:49.000Z,1007.28
2023-04-09T05:27:34.024Z,1007.35
2023-04-09T05:33:18.060Z,1007.29
2023-04-09T05:39:02.202Z,1007.31
2023-04-09T05:44:46.358Z,1007.36
2023-04-09T05:50:30.394Z,1007.36
2023-04-09T05:56:24.984Z,1007.39
2023-04-09T06:02:09.083Z,1007.39
2023-04-09T06:07:53.478Z,1007.45
2023-04-09T06:13:37.474Z,1007.51
2023-04-09T06:19:21.541Z,1007.54
2023-04-09T06:25:05.954Z,1007.59
2023-04-09T06:30:50.334Z,1007.61
2023-04-09T06:36:34.817Z,1007.66
2023-04-09T06:42:18.876Z,1007.64
2023-04-09T06:48:03.798Z,1007.69
2023-04-09T06:53:47.820Z,1007.64
2023-04-09T06:59:32.295Z,1007.57
2023-04-09T07:05:16.391Z,1007.61
2023-04-09T07:11:00.420Z,1007.63
2023-04-09T07:16:44.562Z,1007.61
2023-04-09T07:22:29.641Z,1007.67
2023-04-09T07:28:13.995Z,1007.68
2023-04-09T07:33:58.446Z,1007.72
2023-04-09T07:39:42.732Z,1007.72
2023-04-09T07:45:26.896Z,1007.75
2023-04-09T07:51:11.139Z,1007.61
2023-04-09T07:56:55.252Z,1007.63
2023-04-09T08:02:39.751Z,1007.59
2023-04-09T08:08:24.275Z,1007.58
2023-04-09T08:14:09.280Z,1007.62
2023-04-09T08:19:53.298Z,1007.66
2023-04-09T08:25:37.275Z,1007.69
2023-04-09T08:31:21.498Z,1007.67
2023-04-09T08:37:05.559Z,1007.7
2023-04-09T08:42:54.193Z,1007.78
2023-04-09T08:48:39.553Z,1007.73
2023-04-09T08:54:23.809Z,1007.73
2023-04-09T09:00:08.959Z,1007.69
2023-04-09T09:05:52.998Z,1007.6
2023-04-09T09:11:38.887Z,1007.61
2023-04-09T09:17:25.885Z,1007.63
2023-04-09T09:23:09.929Z,1007.66
2023-04-09T09:28:54.554Z,1007.61
2023-04-09T09:34:38.881Z,1007.62
2023-04-09T09:40:31.209Z,1007.54
2023-04-09T09:46:16.013Z,1007.48
2023-04-09T09:52:01.105Z,1007.38
2023-04-09T09:57:45.791Z,1007.34
2023-04-09T10:03:30.862Z,1007.31
2023-04-09T10:09:15.225Z,1007.3
2023-04-09T10:15:00.122Z,1007.32
2023-04-09T10:20:47.631Z,1007.24
2023-04-09T10:26:33.784Z,1007.18
2023-04-09T10:32:19.356Z,1007.12
2023-04-09T10:38:03.485Z,1007.04
2023-04-09T10:43:48.117Z,1007.02
2023-04-09T10:49:36.963Z,1007.04
2023-04-09T10:55:37.426Z,1006.9
2023-04-09T11:01:26.060Z,1006.82
2023-04-09T11:07:11.206Z,1006.85
2023-04-09T11:12:55.257Z,1006.84
2023-04-09T11:18:40.365Z,1006.75
2023-04-09T11:24:24.330Z,1006.73
2023-04-09T11:30:09.107Z,1006.66
2023-04-09T11:35:53.126Z,1006.6
2023-04-09T11:41:40.058Z,1006.52
2023-04-09T11:47:24.518Z,1006.49
2023-04-09T11:53:19.840Z,1006.45
2023-04-09T11:59:04.198Z,1006.46
2023-04-09T12:04:54.320Z,1006.4
2023-04-09T12:10:39.665Z,1006.44
2023-04-09T12:16:24.283Z,1006.45
2023-04-09T12:22:08.541Z,1006.39
2023-04-09T12:27:52.644Z,1006.38
2023-04-09T12:33:36.668Z,1006.42
2023-04-09T12:39:20.591Z,1006.35
2023-04-09T12:45:05.279Z,1006.41
2023-04-09T12:50:49.326Z,1006.39
2023-04-09T12:56:33.444Z,1006.26
2023-04-09T13:02:17.763Z,1006.22
2023-04-09T13:08:02.500Z,1006.17
2023-04-09T13:13:46.487Z,1006.18
2023-04-09T13:19:30.551Z,1006.16
2023-04-09T13:25:16.172Z,1006.18
2023-04-09T13:31:00.371Z,1006.15
2023-04-09T13:36:44.638Z,1006.02
2023-04-09T13:42:28.706Z,1005.99
2023-04-09T13:48:16.268Z,1005.96
2023-04-09T13:54:00.347Z,1005.88
2023-04-09T13:59:48.097Z,1005.85
2023-04-09T14:05:32.998Z,1005.88
2023-04-09T14:11:17.029Z,1005.85
2023-04-09T14:17:01.029Z,1005.71
2023-04-09T14:22:45.175Z,1005.63
2023-04-09T14:28:29.313Z,1005.62
2023-04-09T14:34:13.691Z,1005.5
2023-04-09T14:39:57.803Z,1005.48
2023-04-09T14:45:41.885Z,1005.48
2023-04-09T14:51:26.244Z,1005.35
2023-04-09T14:57:10.279Z,1005.21
2023-04-09T15:02:54.903Z,1005.06
2023-04-09T15:08:39.957Z,1005.09
2023-04-09T15:14:24.187Z,1005.21
2023-04-09T15:20:09.038Z,1005.25
2023-04-09T15:25:54.089Z,1005.22
2023-04-09T15:31:41.424Z,1005.14
2023-04-09T15:37:26.014Z,1005.07
2023-04-09T15:43:09.974Z,1005.08
2023-04-09T15:48:54.321Z,1005.09
2023-04-09T15:54:38.616Z,1005.1
2023-04-09T16:00:22.785Z,1004.99
2023-04-09T16:06:09.594Z,1005.07
2023-04-09T16:11:53.627Z,1004.99
2023-04-09T16:17:42.254Z,1004.98
2023-04-09T16:23:26.840Z,1004.92
2023-04-09T16:29:13.706Z,1004.89
2023-04-09T16:34:57.840Z,1004.85
2023-04-09T16:40:41.868Z,1004.8
2023-04-09T16:46:27.124Z,1004.74
2023-04-09T16:52:11.611Z,1004.71
2023-04-09T16:57:55.622Z,1004.71
2023-04-09T17:03:39.887Z,1004.62
2023-04-09T17:09:24.086Z,1004.63
2023-04-09T17:15:08.750Z,1004.82
2023-04-09T17:20:52.810Z,1004.76
2023-04-09T17:26:36.728Z,1004.74
2023-04-09T17:32:20.736Z,1004.71
2023-04-09T17:38:05.173Z,1004.63
2023-04-09T17:43:49.109Z,1004.57
2023-04-09T17:49:34.709Z,1004.6
2023-04-09T17:55:18.810Z,1004.54
2023-04-09T18:01:03.045Z,1004.66
2023-04-09T18:06:47.241Z,1004.7
2023-04-09T18:12:31.148Z,1004.7
2023-04-09T18:18:15.709Z,1004.71
2023-04-09T18:24:00.097Z,1004.73
2023-04-09T18:29:44.118Z,1004.83
2023-04-09T18:35:28.190Z,1004.84
2023-04-09T18:41:12.304Z,1004.96
2023-04-09T18:46:57.499Z,1005.01
2023-04-09T18:52:41.741Z,1004.99
2023-04-09T18:58:26.070Z,1004.92
2023-04-09T19:04:10.481Z,1004.92
2023-04-09T19:09:54.832Z,1005
2023-04-09T19:15:38.903Z,1005
2023-04-09T19:21:22.992Z,1005.03
2023-04-09T19:27:07.859Z,1004.98
2023-04-09T19:32:51.944Z,1004.96
2023-04-09T19:38:36.310Z,1005.02
2023-04-09T19:44:20.354Z,1004.96
2023-04-09T19:50:04.665Z,1004.96
2023-04-09T19:55:48.727Z,1004.96
2023-04-09T20:01:32.987Z,1004.99
2023-04-09T20:07:18.183Z,1004.96
2023-04-09T20:13:02.130Z,1004.93
2023-04-09T20:18:46.255Z,1004.89
2023-04-09T20:24:30.163Z,1004.88
2023-04-09T20:30:14.836Z,1004.87
2023-04-09T20:35:59.145Z,1004.87
2023-04-09T20:41:43.274Z,1004.85
2023-04-09T20:47:27.613Z,1004.79
2023-04-09T20:53:12.015Z,1004.77
2023-04-09T20:58:56.319Z,1004.82
2023-04-09T21:04:40.343Z,1004.86
2023-04-09T21:10:24.256Z,1004.9
2023-04-09T21:16:09.395Z,1004.89
2023-04-09T21:21:53.477Z,1005
2023-04-09T21:27:37.516Z,1004.97
2023-04-09T21:33:21.350Z,1004.93
2023-04-09T21:39:05.551Z,1004.96
2023-04-09T21:44:49.439Z,1004.91
2023-04-09T21:50:33.598Z,1004.86
2023-04-09T21:56:17.779Z,1004.88
2023-04-09T22:02:01.955Z,1004.93
2023-04-09T22:07:46.591Z,1004.9
2023-04-09T22:13:30.306Z,1004.86
2023-04-09T22:19:14.266Z,1004.89
2023-04-09T22:24:58.125Z,1004.82
2023-04-09T22:30:42.221Z,1004.88
2023-04-09T22:36:26.490Z,1004.87
2023-04-09T22:42:10.323Z,1004.84
2023-04-09T22:47:54.318Z,1004.81
2023-04-09T22:53:38.391Z,1004.76
2023-04-09T22:59:27.643Z,1004.81
2023-04-09T23:05:22.556Z,1004.9
2023-04-09T23:11:06.967Z,1004.92
2023-04-09T23:16:50.934Z,1004.98
2023-04-09T23:22:35.110Z,1004.85
2023-04-09T23:28:19.145Z,1004.7
2023-04-09T23:34:03.133Z,1004.54
2023-04-09T23:39:47.166Z,1004.42
2023-04-09T23:45:31.105Z,1004.41
2023-04-09T23:51:17.481Z,1004.39
2023-04-09T23:57:01.631Z,1004.35
